Time;durP1;ratioP1;P1;durP2;ratioP2;P2;SDS_P1;SDS_P2;PMS_P1;PMS_P2;Temp;Humidity;BMP_temperature;BMP_pressure;BME280_temperature;BME280_humidity;BME280_pressure;Samples;Min_cycle;Max_cycle;Signal;HPM_P1;HPM_P2
2023/05/04 00:01:34;;;;;;;15.20;4.20;;;;;;;4.93;67.98;101683.36;105490;1268;97979;-79
2023/05/04 00:04:19;;;;;;;6.40;3.60;;;;;;;4.89;68.00;101683.84;105416;1272;97975;-79
2023/05/04 00:07:05;;;;;;;4.60;3.30;;;;;;;4.83;67.97;101680.48;105251;1269;98855;-79
2023/05/04 00:09:50;;;;;;;6.40;3.60;;;;;;;4.77;67.92;101681.71;105014;1266;102602;-79
2023/05/04 00:12:36;;;;;;;5.50;3.00;;;;;;;4.71;67.78;101680.20;104902;1268;99090;-78
2023/05/04 00:15:22;;;;;;;4.60;3.40;;;;;;;4.65;67.93;101682.42;105373;1266;97980;-78
2023/05/04 00:18:08;;;;;;;7.30;4.40;;;;;;;4.61;68.32;101682.74;105442;1271;97999;-80
2023/05/04 00:20:54;;;;;;;6.40;4.00;;;;;;;4.61;68.17;101683.98;105465;1269;97932;-80
2023/05/04 00:23:40;;;;;;;4.60;3.00;;;;;;;4.57;67.87;101682.23;105023;1266;101348;-79
2023/05/04 00:26:25;;;;;;;5.00;3.60;;;;;;;4.54;67.94;101685.11;105072;1265;99063;-78
2023/05/04 00:29:11;;;;;;;6.60;3.90;;;;;;;4.52;68.04;101690.59;104905;1272;98628;-80
2023/05/04 00:31:56;;;;;;;4.90;3.90;;;;;;;4.48;67.91;101687.34;104886;1269;97967;-79
2023/05/04 00:34:42;;;;;;;7.30;5.90;;;;;;;4.43;68.04;101686.67;104918;1269;97993;-79
2023/05/04 00:37:27;;;;;;;9.00;7.80;;;;;;;4.38;68.22;101684.95;104873;1272;101954;-81
2023/05/04 00:40:12;;;;;;;8.40;6.90;;;;;;;4.34;68.24;101687.45;105407;1266;99180;-79
2023/05/04 00:42:58;;;;;;;8.60;6.10;;;;;;;4.31;68.35;101685.51;105122;1268;98066;-78
2023/05/04 00:45:43;;;;;;;7.80;5.80;;;;;;;4.29;68.25;101689.26;104907;1274;97949;-79
2023/05/04 00:48:30;;;;;;;7.50;5.70;;;;;;;4.26;68.22;101689.34;104859;1266;99139;-81
2023/05/04 00:51:19;;;;;;;10.50;7.40;;;;;;;4.22;68.36;101685.41;104943;1267;101375;-79
2023/05/04 00:54:05;;;;;;;9.70;7.10;;;;;;;4.18;68.75;101685.20;104996;1269;100290;-78
2023/05/04 00:56:50;;;;;;;14.10;9.30;;;;;;;4.14;69.00;101688.11;104788;1266;98289;-79
2023/05/04 00:59:36;;;;;;;15.90;12.70;;;;;;;4.10;69.20;101688.44;104835;1272;98441;-79
2023/05/04 01:02:22;;;;;;;19.10;16.10;;;;;;;4.06;69.30;101688.26;104855;1270;97883;-80
2023/05/04 01:05:11;;;;;;;16.80;13.80;;;;;;;4.02;69.25;101687.66;104906;1266;101415;-79
2023/05/04 01:08:14;;;;;;;12.60;11.00;;;;;;;3.98;69.40;101686.00;104849;1270;99084;-79
2023/05/04 01:11:14;;;;;;;7.80;5.60;;;;;;;3.97;69.78;101685.98;104886;1274;98901;-80
2023/05/04 01:14:00;;;;;;;6.20;4.60;;;;;;;3.95;70.15;101688.44;104755;1267;97966;-80
2023/05/04 01:16:52;;;;;;;6.40;4.70;;;;;;;3.92;70.27;101691.44;104888;1272;97774;-79
2023/05/04 01:19:37;;;;;;;8.20;5.20;;;;;;;3.89;69.98;101693.09;104877;1267;101446;-79
2023/05/04 01:22:23;;;;;;;6.60;5.00;;;;;;;3.85;70.02;101688.23;104810;1271;99130;-80
2023/05/04 01:25:09;;;;;;;5.00;4.00;;;;;;;3.81;70.24;101688.04;104882;1268;97976;-78
2023/05/04 01:28:06;;;;;;;6.40;4.20;;;;;;;3.74;70.10;101684.52;104914;1268;99022;-79
2023/05/04 01:30:57;;;;;;;4.50;3.40;;;;;;;3.66;70.10;101686.92;104749;1271;98727;-79
2023/05/04 01:33:43;;;;;;;5.70;4.60;;;;;;;3.60;70.08;101686.10;104990;1272;101380;-78
2023/05/04 01:36:31;;;;;;;4.90;4.00;;;;;;;3.56;70.20;101681.47;104897;1266;99099;-79
2023/05/04 01:39:17;;;;;;;6.40;4.20;;;;;;;3.53;70.09;101679.46;104880;1269;98632;-78
2023/05/04 01:42:03;;;;;;;5.50;4.10;;;;;;;3.53;70.33;101678.40;104869;1266;98088;-79
2023/05/04 01:44:49;;;;;;;5.10;3.70;;;;;;;3.55;70.63;101676.58;104834;1271;97870;-79
2023/05/04 01:47:36;;;;;;;6.50;4.00;;;;;;;3.55;70.84;101679.63;104942;1272;101293;-80
2023/05/04 01:50:21;;;;;;;5.80;3.90;;;;;;;3.53;70.74;101678.93;104919;1272;99095;-80
2023/05/04 01:53:06;;;;;;;5.30;3.90;;;;;;;3.49;70.76;101677.24;104824;1270;97980;-78
2023/05/04 01:55:52;;;;;;;5.40;4.10;;;;;;;3.45;70.73;101679.19;104755;1272;98040;-79
2023/05/04 01:58:38;;;;;;;8.70;3.90;;;;;;;3.41;70.76;101679.31;104839;1272;98425;-78
2023/05/04 02:01:23;;;;;;;5.20;4.10;;;;;;;3.36;70.90;101676.70;104909;1279;101366;-79
2023/05/04 02:04:09;;;;;;;8.10;3.80;;;;;;;3.28;70.75;101675.67;104882;1267;99805;-78
2023/05/04 02:06:57;;;;;;;5.70;3.90;;;;;;;3.24;70.97;101678.27;105103;1270;99016;-78
2023/05/04 02:09:42;;;;;;;8.00;4.60;;;;;;;3.20;70.98;101681.79;104815;1270;97913;-78
2023/05/04 02:12:28;;;;;;;7.10;4.00;;;;;;;3.15;71.01;101679.98;104819;1267;98501;-78
2023/05/04 02:15:13;;;;;;;4.70;3.40;;;;;;;3.12;71.09;101682.70;104929;1269;102648;-77
2023/05/04 02:17:59;;;;;;;6.00;3.30;;;;;;;3.09;71.08;101683.98;104667;1266;99169;-80
2023/05/04 02:20:44;;;;;;;4.40;3.40;;;;;;;3.07;70.97;101685.36;104783;1271;98999;-78
2023/05/04 02:23:33;;;;;;;3.80;3.10;;;;;;;3.03;71.05;101680.52;104854;1270;97769;-78
2023/05/04 02:26:18;;;;;;;4.70;3.30;;;;;;;3.00;71.25;101678.47;104876;1267;98055;-79
2023/05/04 02:29:04;;;;;;;4.30;3.20;;;;;;;2.98;71.40;101674.03;104868;1266;101376;-77
2023/05/04 02:31:50;;;;;;;4.90;3.90;;;;;;;2.99;71.55;101676.44;104804;1270;100337;-78
2023/05/04 02:34:35;;;;;;;5.90;4.40;;;;;;;2.98;71.81;101675.77;105476;1273;98139;-80
2023/05/04 02:37:21;;;;;;;5.00;3.60;;;;;;;2.95;71.65;101678.46;105432;1270;98079;-80
2023/05/04 02:40:07;;;;;;;3.50;3.10;;;;;;;2.93;71.88;101678.48;105475;1271;97897;-79
2023/05/04 02:42:54;;;;;;;5.30;3.70;;;;;;;2.90;71.78;101678.34;104828;1270;101357;-80
2023/05/04 02:45:39;;;;;;;5.00;3.60;;;;;;;2.87;71.88;101682.44;104801;1267;100378;-78
2023/05/04 02:48:25;;;;;;;7.30;4.40;;;;;;;2.87;72.11;101679.21;104801;1267;98033;-80
2023/05/04 02:51:11;;;;;;;6.00;3.70;;;;;;;2.87;71.98;101678.92;104785;1269;98089;-79
2023/05/04 02:53:57;;;;;;;5.30;3.70;;;;;;;2.85;72.02;101677.48;104901;1267;99151;-77
2023/05/04 02:56:43;;;;;;;9.50;4.60;;;;;;;2.82;71.97;101677.14;104631;1267;101421;-77
2023/05/04 02:59:28;;;;;;;6.10;3.80;;;;;;;2.81;72.06;101679.33;104588;1266;99142;-78
2023/05/04 03:02:14;;;;;;;6.20;3.90;;;;;;;2.80;72.31;101681.03;104507;1269;98785;-78
2023/05/04 03:04:59;;;;;;;5.90;4.20;;;;;;;2.77;72.35;101679.42;104725;1268;98071;-79
2023/05/04 03:07:44;;;;;;;6.00;3.90;;;;;;;2.73;72.46;101674.44;105088;1270;97994;-78
2023/05/04 03:10:29;;;;;;;5.70;4.20;;;;;;;2.70;72.34;101674.34;104982;1269;101373;-79
2023/05/04 03:13:15;;;;;;;4.70;3.60;;;;;;;2.69;72.29;101677.08;105089;1269;100368;-80
2023/05/04 03:16:00;;;;;;;9.50;4.00;;;;;;;2.68;72.30;101679.96;104992;1270;99016;-79
2023/05/04 03:18:47;;;;;;;5.80;4.30;;;;;;;2.67;72.60;101674.00;104867;1265;97966;-79
2023/05/04 03:21:32;;;;;;;5.60;3.90;;;;;;;2.68;72.84;101676.60;104752;1273;98418;-78
2023/05/04 03:24:18;;;;;;;7.90;4.70;;;;;;;2.65;72.89;101673.09;104902;1276;102250;-78
2023/05/04 03:27:04;;;;;;;4.10;3.60;;;;;;;2.61;72.65;101673.41;104872;1275;99127;-78
2023/05/04 03:29:51;;;;;;;5.40;4.00;;;;;;;2.59;72.90;101675.64;104797;1270;98580;-79
2023/05/04 03:32:37;;;;;;;5.50;4.40;;;;;;;2.58;72.93;101676.83;104713;1269;98050;-78
2023/05/04 03:35:22;;;;;;;6.40;3.60;;;;;;;2.55;73.02;101680.87;104673;1272;98493;-80
2023/05/04 03:38:09;;;;;;;5.10;3.80;;;;;;;2.55;73.17;101680.41;104947;1270;101359;-78
2023/05/04 03:40:55;;;;;;;5.60;3.70;;;;;;;2.53;73.27;101683.48;105276;1270;99663;-79
2023/05/04 03:43:41;;;;;;;5.80;4.10;;;;;;;2.54;73.78;101682.36;104877;1270;97950;-79
2023/05/04 03:46:28;;;;;;;5.10;4.10;;;;;;;2.54;74.11;101681.66;104784;1273;97882;-78
2023/05/04 03:49:14;;;;;;;4.00;3.60;;;;;;;2.54;74.18;101679.95;104855;1273;98546;-78
2023/05/04 03:52:00;;;;;;;4.70;3.80;;;;;;;2.54;74.42;101679.40;104787;1270;101418;-80
2023/05/04 03:54:45;;;;;;;6.40;4.40;;;;;;;2.54;74.44;101679.21;104804;1272;99627;-78
2023/05/04 03:57:32;;;;;;;5.30;4.40;;;;;;;2.58;74.55;101679.81;104824;1269;97976;-79
2023/05/04 04:00:18;;;;;;;5.30;4.00;;;;;;;2.62;74.83;101681.80;105367;1267;97964;-79
2023/05/04 04:03:08;;;;;;;9.10;4.00;;;;;;;2.64;74.75;101684.28;104892;1276;98470;-77
2023/05/04 04:05:55;;;;;;;4.80;3.70;;;;;;;2.66;74.90;101687.14;104962;1274;101425;-79
2023/05/04 04:08:40;;;;;;;5.10;4.00;;;;;;;2.67;75.15;101687.77;105021;1270;99224;-79
2023/05/04 04:11:27;;;;;;;7.90;4.30;;;;;;;2.69;75.19;101688.87;104873;1278;98979;-78
2023/05/04 04:14:13;;;;;;;6.80;4.70;;;;;;;2.72;75.54;101689.48;104906;1270;97970;-77
2023/05/04 04:16:58;;;;;;;6.40;5.00;;;;;;;2.77;75.99;101694.07;104917;1279;97763;-78
2023/05/04 04:19:44;;;;;;;7.90;5.00;;;;;;;2.83;76.50;101694.69;104787;1267;101478;-79
2023/05/04 04:22:29;;;;;;;8.80;5.70;;;;;;;2.90;76.69;101693.16;104829;1273;100059;-79
2023/05/04 04:25:14;;;;;;;6.70;5.00;;;;;;;2.95;77.08;101694.89;104930;1267;99056;-79
2023/05/04 04:28:00;;;;;;;9.30;6.30;;;;;;;2.98;77.18;101695.03;104793;1270;97907;-78
2023/05/04 04:30:46;;;;;;;11.00;6.40;;;;;;;3.02;77.13;101696.48;104862;1270;98577;-80
2023/05/04 04:33:33;;;;;;;9.20;5.60;;;;;;;3.08;77.42;101697.80;104941;1275;101739;-79
2023/05/04 04:36:19;;;;;;;11.70;6.40;;;;;;;3.16;77.98;101697.42;105099;1270;99896;-79
2023/05/04 04:39:05;;;;;;;11.40;6.10;;;;;;;3.24;78.34;101695.93;105615;1270;97887;-80
2023/05/04 04:41:51;;;;;;;10.80;6.90;;;;;;;3.33;78.42;101697.93;105610;1270;97967;-78
2023/05/04 04:44:36;;;;;;;10.30;6.60;;;;;;;3.41;78.45;101701.01;105455;1267;96438;-80
2023/05/04 04:47:21;;;;;;;11.50;7.20;;;;;;;3.50;78.73;101700.83;105554;1268;101346;-79
2023/05/04 04:50:07;;;;;;;14.30;7.70;;;;;;;3.61;79.04;101702.82;104914;1272;99155;-80
2023/05/04 04:52:53;;;;;;;10.60;7.20;;;;;;;3.72;79.26;101703.41;105040;1267;98337;-78
2023/05/04 04:55:38;;;;;;;12.20;8.00;;;;;;;3.82;79.64;101706.64;104955;1267;97849;-78
2023/05/04 04:58:24;;;;;;;12.90;8.00;;;;;;;3.93;80.03;101710.62;104925;1269;98707;-78
2023/05/04 05:01:09;;;;;;;12.90;8.40;;;;;;;4.02;80.41;101707.45;104824;1268;102175;-77
2023/05/04 05:03:55;;;;;;;16.10;7.90;;;;;;;4.13;80.58;101703.75;104990;1268;99190;-79
2023/05/04 05:06:40;;;;;;;13.80;8.20;;;;;;;4.27;80.70;101698.98;105087;1267;99040;-78
2023/05/04 05:09:26;;;;;;;12.30;8.50;;;;;;;4.40;80.93;101696.83;105103;1268;98685;-80
2023/05/04 05:12:11;;;;;;;12.60;8.10;;;;;;;4.54;81.38;101699.98;105096;1269;98508;-78
2023/05/04 05:14:57;;;;;;;14.20;8.60;;;;;;;4.68;81.68;101702.40;105471;1267;101442;-79
2023/05/04 05:17:42;;;;;;;18.70;8.60;;;;;;;4.81;82.27;101704.86;105055;1266;100122;-80
2023/05/04 05:20:28;;;;;;;15.10;8.00;;;;;;;4.94;82.27;101706.98;105209;1280;97971;-79
2023/05/04 05:23:14;;;;;;;13.70;8.00;;;;;;;5.07;81.80;101705.59;105573;1269;97969;-79
2023/05/04 05:26:00;;;;;;;13.30;9.20;;;;;;;5.19;81.54;101701.38;105658;1267;97960;-81
2023/05/04 05:28:46;;;;;;;13.80;8.10;;;;;;;5.32;81.41;101699.20;105655;1269;102116;-80
2023/05/04 05:31:31;;;;;;;14.30;8.30;;;;;;;5.48;81.25;101700.73;105531;1266;99103;-79
2023/05/04 05:34:17;;;;;;;14.00;8.40;;;;;;;5.63;80.97;101697.51;105623;1266;99000;-78
2023/05/04 05:37:03;;;;;;;16.90;9.00;;;;;;;5.80;80.83;101700.52;105480;1267;99257;-79
2023/05/04 05:39:48;;;;;;;20.10;9.80;;;;;;;5.96;80.14;101699.31;105606;1266;98420;-80
2023/05/04 05:42:34;;;;;;;14.90;8.80;;;;;;;6.11;79.69;101693.21;105094;1270;102627;-79
2023/05/04 05:45:19;;;;;;;18.10;9.80;;;;;;;6.27;79.44;101691.30;105057;1270;100671;-80
2023/05/04 05:48:05;;;;;;;17.70;10.10;;;;;;;6.44;79.02;101689.69;105211;1270;98660;-81
2023/05/04 05:50:51;;;;;;;15.40;9.60;;;;;;;6.60;78.83;101686.49;105669;1266;97884;-79
2023/05/04 05:53:36;;;;;;;16.90;9.40;;;;;;;6.76;78.39;101684.50;105158;1269;97928;-80
2023/05/04 05:56:22;;;;;;;20.40;10.70;;;;;;;6.92;77.79;101688.55;105063;1278;101350;-78
2023/05/04 05:59:07;;;;;;;20.40;10.50;;;;;;;7.07;77.60;101690.55;105084;1267;99247;-80
2023/05/04 06:01:53;;;;;;;22.10;11.10;;;;;;;7.23;77.13;101695.12;104825;1266;97993;-79
2023/05/04 06:04:45;;;;;;;17.90;10.20;;;;;;;7.40;76.88;101692.69;104980;1266;97982;-79
2023/05/04 06:07:31;;;;;;;21.50;11.90;;;;;;;7.55;76.93;101690.00;105613;1267;97960;-80
2023/05/04 06:10:17;;;;;;;19.70;11.00;;;;;;;7.72;76.78;101689.35;105628;1268;102646;-82
2023/05/04 06:13:02;;;;;;;17.30;10.70;;;;;;;7.87;75.64;101688.26;105438;1267;99264;-84
2023/05/04 06:15:52;;;;;;;18.80;10.10;;;;;;;8.03;75.24;101684.48;105417;1266;98473;-84
2023/05/04 06:18:38;;;;;;;24.20;12.10;;;;;;;8.18;74.60;101681.63;105363;1270;98149;-81
2023/05/04 06:21:23;;;;;;;17.10;10.50;;;;;;;8.33;74.10;101683.92;105314;1269;97968;-80
2023/05/04 06:24:08;;;;;;;23.40;11.30;;;;;;;8.47;73.68;101682.23;105119;1268;101400;-80
2023/05/04 06:26:55;;;;;;;20.80;11.20;;;;;;;8.63;73.75;101677.65;105477;1267;99065;-80
2023/05/04 06:29:41;;;;;;;18.60;10.90;;;;;;;8.78;73.30;101677.97;105523;1270;99497;-82
2023/05/04 06:32:26;;;;;;;19.50;10.40;;;;;;;8.94;73.70;101682.70;105509;1265;97894;-81
2023/05/04 06:35:12;;;;;;;22.60;10.50;;;;;;;9.09;72.49;101684.48;105522;1266;98506;-83
2023/05/04 06:37:57;;;;;;;18.00;10.30;;;;;;;9.21;71.65;101684.73;105256;1266;101382;-76
2023/05/04 06:40:43;;;;;;;18.60;11.60;;;;;;;9.33;71.28;101681.52;104606;1273;100114;-76
2023/05/04 06:43:28;;;;;;;18.90;10.10;;;;;;;9.45;71.16;101681.39;104486;1273;99096;-77
2023/05/04 06:46:15;;;;;;;18.70;10.40;;;;;;;9.60;71.88;101681.33;104547;1268;97926;-78
2023/05/04 06:49:02;;;;;;;14.40;8.50;;;;;;;9.75;70.62;101678.52;104906;1267;97861;-84
2023/05/04 06:51:48;;;;;;;13.10;7.50;;;;;;;9.88;68.52;101679.85;105379;1268;101300;-80
2023/05/04 06:54:34;;;;;;;12.80;6.80;;;;;;;10.00;68.03;101677.19;105664;1266;99140;-81
2023/05/04 06:57:20;;;;;;;12.60;7.20;;;;;;;10.14;67.34;101676.52;105318;1265;99099;-82
2023/05/04 07:00:07;;;;;;;13.40;7.00;;;;;;;10.27;66.72;101679.19;105413;1268;98072;-80
2023/05/04 07:02:53;;;;;;;12.10;7.30;;;;;;;10.41;66.07;101676.64;104909;1269;97932;-81
2023/05/04 07:05:38;;;;;;;10.60;6.80;;;;;;;10.56;65.77;101681.20;105429;1267;101351;-83
2023/05/04 07:08:24;;;;;;;14.00;6.40;;;;;;;10.67;64.91;101676.37;105338;1266;100727;-78
2023/05/04 07:11:10;;;;;;;9.40;5.50;;;;;;;10.77;64.31;101675.84;105738;1268;97981;-78
2023/05/04 07:13:56;;;;;;;9.10;5.70;;;;;;;10.89;64.05;101677.09;105568;1268;97993;-78
2023/05/04 07:16:41;;;;;;;12.40;6.30;;;;;;;11.04;63.81;101679.58;104823;1270;98395;-78
2023/05/04 07:19:27;;;;;;;13.00;6.40;;;;;;;11.18;63.04;101684.51;104752;1268;101354;-84
2023/05/04 07:22:13;;;;;;;11.00;6.20;;;;;;;11.29;62.66;101678.27;105388;1265;100722;-83
2023/05/04 07:24:59;;;;;;;10.10;6.00;;;;;;;11.41;62.33;101673.95;105510;1267;99428;-81
2023/05/04 07:27:45;;;;;;;9.30;4.70;;;;;;;11.53;61.56;101673.96;105688;1266;97976;-80
2023/05/04 07:30:31;;;;;;;7.40;4.70;;;;;;;11.65;60.70;101669.98;105670;1270;97904;-82
2023/05/04 07:33:16;;;;;;;7.90;4.90;;;;;;;11.79;61.08;101670.34;105567;1271;102640;-80
2023/05/04 07:36:01;;;;;;;8.90;4.60;;;;;;;11.95;61.37;101670.86;105462;1266;99253;-79
2023/05/04 07:38:47;;;;;;;9.70;4.80;;;;;;;12.09;60.30;101664.20;104958;1267;97919;-80
2023/05/04 07:41:32;;;;;;;5.50;3.50;;;;;;;12.24;59.36;101660.54;104968;1266;97958;-78
2023/05/04 07:44:18;;;;;;;7.80;3.80;;;;;;;12.38;58.24;101656.77;105105;1266;98419;-80
2023/05/04 07:47:04;;;;;;;9.40;3.60;;;;;;;12.46;57.19;101659.20;105560;1271;102173;-80
2023/05/04 07:49:49;;;;;;;7.70;4.30;;;;;;;12.52;57.04;101661.67;104940;1270;100371;-80
2023/05/04 07:52:35;;;;;;;6.90;3.60;;;;;;;12.60;56.74;101659.48;105047;1266;97945;-80
2023/05/04 07:55:20;;;;;;;7.60;4.10;;;;;;;12.68;55.67;101656.06;105032;1270;97971;-80
2023/05/04 07:58:06;;;;;;;4.40;3.10;;;;;;;12.77;55.02;101656.15;104982;1266;98759;-80
2023/05/04 08:00:51;;;;;;;3.90;2.40;;;;;;;12.86;54.20;101654.99;105293;1270;101354;-82
2023/05/04 08:03:37;;;;;;;6.00;2.50;;;;;;;12.95;53.03;101656.13;105273;1265;100358;-80
2023/05/04 08:06:22;;;;;;;3.80;2.40;;;;;;;13.04;51.75;101654.35;105858;1271;97970;-80
2023/05/04 08:09:08;;;;;;;3.30;2.00;;;;;;;13.12;51.30;101652.50;105640;1267;97919;-80
2023/05/04 08:11:54;;;;;;;3.30;1.90;;;;;;;13.25;50.94;101651.65;105016;1265;98501;-77
2023/05/04 08:14:40;;;;;;;3.30;2.10;;;;;;;13.38;50.44;101648.98;105068;1268;102125;-79
2023/05/04 08:17:25;;;;;;;6.00;2.20;;;;;;;13.53;50.17;101650.43;105062;1270;100073;-80
2023/05/04 08:20:11;;;;;;;3.00;2.20;;;;;;;13.69;50.04;101654.73;104994;1269;99015;-79
2023/05/04 08:22:57;;;;;;;2.80;1.90;;;;;;;13.82;49.47;101657.52;105872;1266;97795;-82
2023/05/04 08:25:43;;;;;;;3.70;2.00;;;;;;;13.84;48.54;101657.67;105909;1272;98525;-81
2023/05/04 08:28:29;;;;;;;3.00;1.90;;;;;;;13.79;47.22;101656.45;105860;1265;102607;-81
2023/05/04 08:31:17;;;;;;;3.10;2.00;;;;;;;13.80;47.76;101656.79;105863;1282;110463;-81
2023/05/04 08:34:02;;;;;;;3.50;2.30;;;;;;;13.99;48.19;101654.52;105735;1266;106388;-77
2023/05/04 08:36:48;;;;;;;6.00;2.30;;;;;;;14.20;48.13;101654.55;105382;1267;96576;-81
2023/05/04 08:39:33;;;;;;;2.80;2.20;;;;;;;14.36;48.17;101657.13;105202;1266;97775;-80
2023/05/04 08:42:30;;;;;;;4.50;2.20;;;;;;;14.50;48.09;101652.31;104986;1266;101353;-79
2023/05/04 08:45:16;;;;;;;3.70;2.20;;;;;;;14.65;48.58;101647.75;104594;1270;99679;-76
2023/05/04 08:48:02;;;;;;;2.30;2.10;;;;;;;14.79;47.55;101649.96;105035;1266;97959;-79
2023/05/04 08:50:48;;;;;;;3.10;1.90;;;;;;;14.88;46.73;101656.01;104800;1269;97979;-79
2023/05/04 08:53:36;;;;;;;5.10;2.80;;;;;;;14.95;46.46;101656.09;105025;1268;97937;-79
2023/05/04 08:56:24;;;;;;;4.80;2.00;;;;;;;15.01;45.94;101655.96;105228;1271;101349;-78
2023/05/04 08:59:18;;;;;;;3.70;2.50;;;;;;;15.05;45.38;101652.77;105083;1266;100483;-79
2023/05/04 09:02:04;;;;;;;3.90;2.40;;;;;;;15.13;45.58;101646.92;105005;1266;98289;-79
2023/05/04 09:04:51;;;;;;;4.00;2.10;;;;;;;15.26;45.54;101651.76;105278;1272;97966;-80
2023/05/04 09:07:37;;;;;;;4.00;2.10;;;;;;;15.35;45.09;101646.95;104840;1265;97927;-79
2023/05/04 09:10:23;;;;;;;3.20;2.20;;;;;;;15.39;44.96;101646.48;104933;1268;101350;-80
2023/05/04 09:13:09;;;;;;;3.50;1.90;;;;;;;15.46;44.89;101646.25;104947;1267;99112;-81
2023/05/04 09:15:56;;;;;;;4.30;2.00;;;;;;;15.52;44.19;101648.72;105379;1270;99317;-79
2023/05/04 09:18:43;;;;;;;3.00;2.00;;;;;;;15.54;43.64;101643.88;107871;1266;95486;-81
2023/05/04 09:21:29;;;;;;;3.00;2.00;;;;;;;15.56;43.46;101642.83;105524;1270;98508;-80
2023/05/04 09:24:28;;;;;;;4.80;2.00;;;;;;;15.61;43.03;101641.21;105361;1267;101397;-79
2023/05/04 09:27:16;;;;;;;3.30;2.00;;;;;;;15.65;42.45;101638.98;104884;1266;100353;-80
2023/05/04 09:30:04;;;;;;;4.70;2.30;;;;;;;15.69;43.14;101637.52;104835;1268;97986;-80
2023/05/04 09:32:49;;;;;;;9.70;2.80;;;;;;;15.73;42.76;101632.66;104846;1269;98057;-78
2023/05/04 09:35:40;;;;;;;4.20;2.30;;;;;;;15.80;43.43;101636.25;105070;1266;98447;-80
2023/05/04 09:38:26;;;;;;;;;;;;;;;15.90;43.21;101637.17;104845;1266;102080;-78
2023/05/04 09:41:12;;;;;;;4.00;2.20;;;;;;;15.93;42.31;101631.29;105427;1266;99078;-79
2023/05/04 09:43:57;;;;;;;3.40;2.10;;;;;;;15.95;41.59;101628.60;104828;1271;97908;-79
2023/05/04 09:46:52;;;;;;;3.60;1.80;;;;;;;15.94;41.79;101630.13;104997;1269;98409;-80
2023/05/04 09:49:37;;;;;;;5.20;2.30;;;;;;;16.04;42.46;101625.13;104882;1266;98031;-79
2023/05/04 09:52:24;;;;;;;3.70;2.30;;;;;;;16.17;41.84;101622.89;105180;1270;101454;-80
2023/05/04 09:55:12;;;;;;;10.20;2.60;;;;;;;16.21;42.12;101614.63;105072;1268;108671;-80
2023/05/04 09:58:00;;;;;;;4.30;2.00;;;;;;;16.31;42.59;101610.29;104874;1279;107348;-79
2023/05/04 10:00:45;;;;;;;2.60;1.70;;;;;;;16.41;42.57;101609.13;105420;1266;97988;-79
2023/05/04 10:03:32;;;;;;;2.70;2.00;;;;;;;16.56;42.66;101607.19;104912;1266;98063;-79
2023/05/04 10:06:19;;;;;;;3.10;2.00;;;;;;;16.69;42.41;101604.89;105460;1266;101359;-79
2023/05/04 10:09:06;;;;;;;2.80;2.10;;;;;;;16.76;41.81;101605.77;104910;1268;99901;-78
2023/05/04 10:11:53;;;;;;;2.80;1.80;;;;;;;16.76;41.20;101605.95;104893;1266;97960;-77
2023/05/04 10:14:38;;;;;;;4.00;2.10;;;;;;;16.74;40.37;101601.16;104917;1270;97991;-78
2023/05/04 10:17:36;;;;;;;3.20;2.20;;;;;;;16.72;40.66;101597.52;104849;1266;96929;-78
2023/05/04 10:20:36;;;;;;;3.40;2.30;;;;;;;16.72;39.98;101596.61;105071;1270;102645;-81
2023/05/04 10:23:43;;;;;;;2.50;2.30;;;;;;;16.80;39.91;101596.59;105133;1266;99666;-80
2023/05/04 10:27:06;;;;;;;3.00;1.90;;;;;;;16.88;40.42;101600.25;104895;1265;99163;-78
2023/05/04 10:29:52;;;;;;;3.10;1.90;;;;;;;16.94;41.17;101598.10;104943;1266;97989;-80
2023/05/04 10:32:38;;;;;;;4.90;2.30;;;;;;;17.06;41.43;101593.05;104917;1266;97956;-77
2023/05/04 10:35:24;;;;;;;3.90;2.60;;;;;;;17.18;40.92;101588.08;104897;1266;102638;-79
2023/05/04 10:38:11;;;;;;;2.70;2.30;;;;;;;17.26;40.88;101590.30;104866;1265;100367;-79
2023/05/04 10:40:57;;;;;;;6.60;2.00;;;;;;;17.34;40.07;101587.23;104820;1273;99224;-79
2023/05/04 10:43:47;;;;;;;3.90;2.30;;;;;;;17.34;39.91;101588.15;104726;1271;97937;-80
2023/05/04 10:46:33;;;;;;;3.80;2.10;;;;;;;17.37;40.90;101588.35;104954;1266;97967;-77
2023/05/04 10:49:18;;;;;;;3.70;1.90;;;;;;;17.33;39.26;101583.22;104777;1269;101420;-80
2023/05/04 10:52:09;;;;;;;3.30;1.90;;;;;;;17.26;38.53;101581.55;104871;1270;100863;-81
2023/05/04 10:55:00;;;;;;;4.70;2.10;;;;;;;17.22;39.32;101577.80;105018;1271;99410;-80
2023/05/04 10:57:48;;;;;;;1.60;1.50;;;;;;;17.21;39.20;101573.83;105053;1267;97923;-80
2023/05/04 11:00:38;;;;;;;3.50;1.60;;;;;;;17.21;39.35;101565.17;105070;1266;98566;-80
2023/05/04 11:03:24;;;;;;;3.60;2.10;;;;;;;17.21;39.59;101563.91;105025;1266;101365;-79
2023/05/04 11:06:18;;;;;;;2.80;2.00;;;;;;;17.20;38.34;101560.95;105035;1270;99105;-79
2023/05/04 11:09:05;;;;;;;3.20;2.30;;;;;;;17.18;38.09;101556.30;105085;1266;99006;-78
2023/05/04 11:11:52;;;;;;;3.20;1.70;;;;;;;17.17;38.10;101551.42;104914;1266;99226;-79
2023/05/04 11:14:41;;;;;;;3.60;1.90;;;;;;;17.19;38.70;101550.23;104818;1268;99151;-78
2023/05/04 11:17:27;;;;;;;2.50;1.60;;;;;;;17.21;39.01;101546.70;104805;1269;102695;-78
2023/05/04 11:20:20;;;;;;;2.90;1.80;;;;;;;17.12;38.30;101540.96;104943;1268;99362;-78
2023/05/04 11:23:09;;;;;;;5.60;2.40;;;;;;;16.98;37.74;101537.15;104792;1265;98989;-79
2023/05/04 11:25:55;;;;;;;4.30;2.00;;;;;;;16.88;37.87;101532.73;105036;1267;97980;-77
2023/05/04 11:28:41;;;;;;;2.80;2.10;;;;;;;16.84;37.79;101529.34;104836;1271;98523;-79
2023/05/04 11:31:27;;;;;;;4.30;2.00;;;;;;;16.95;39.40;101526.73;104867;1266;102292;-79
2023/05/04 11:34:19;;;;;;;2.80;2.10;;;;;;;17.12;39.17;101519.67;104918;1270;100203;-79
2023/05/04 11:37:05;;;;;;;2.10;1.70;;;;;;;17.22;39.62;101512.73;104807;1268;106377;-78
2023/05/04 11:39:51;;;;;;;5.00;2.40;;;;;;;17.35;39.20;101505.85;104781;1269;97974;-78
2023/05/04 11:42:39;;;;;;;5.60;2.10;;;;;;;17.51;39.35;101508.53;104819;1270;97891;-80
2023/05/04 11:45:31;;;;;;;5.80;2.70;;;;;;;17.68;38.37;101509.23;104875;1266;103513;-78
2023/05/04 11:48:17;;;;;;;3.20;2.00;;;;;;;17.80;38.60;101512.63;104926;1266;99175;-78
2023/05/04 11:51:03;;;;;;;9.30;2.30;;;;;;;17.89;39.49;101513.94;105183;1267;97968;-78
2023/05/04 11:53:48;;;;;;;5.50;2.00;;;;;;;17.98;38.77;101512.23;104870;1271;97951;-78
2023/05/04 11:56:41;;;;;;;4.10;2.10;;;;;;;18.05;37.76;101510.59;104910;1270;98441;-79
2023/05/04 11:59:27;;;;;;;3.10;2.00;;;;;;;18.10;38.29;101509.36;105372;1266;101344;-78
2023/05/04 12:02:16;;;;;;;4.30;2.00;;;;;;;18.18;38.33;101514.67;104984;1265;100363;-77
2023/05/04 12:05:03;;;;;;;4.00;2.50;;;;;;;18.28;37.47;101520.31;104878;1268;99021;-79
2023/05/04 12:07:49;;;;;;;3.80;2.00;;;;;;;18.34;37.34;101517.54;104982;1266;97895;-77
2023/05/04 12:10:35;;;;;;;2.90;2.00;;;;;;;18.42;36.93;101515.42;104675;1265;98580;-77
2023/05/04 12:13:20;;;;;;;2.10;1.90;;;;;;;18.43;35.86;101508.29;105456;1266;101354;-78
2023/05/04 12:22:34;;;;;;;7.50;2.00;;;;;;;18.31;36.17;101496.06;105828;1271;98007;-78
2023/05/04 12:25:20;;;;;;;2.80;1.80;;;;;;;18.40;36.80;101495.90;105471;1271;98282;-83
2023/05/04 12:28:06;;;;;;;3.20;1.80;;;;;;;18.53;36.62;101489.94;105845;1271;102034;-87
2023/05/04 12:30:52;;;;;;;4.10;2.20;;;;;;;18.61;36.87;101484.58;105468;1267;101537;-86
2023/05/04 12:33:38;;;;;;;2.60;1.80;;;;;;;18.70;36.56;101478.60;105797;1268;100318;-87
2023/05/04 12:36:24;;;;;;;2.00;1.60;;;;;;;18.71;36.29;101475.45;105199;1276;97917;-84
2023/05/04 12:39:10;;;;;;;6.00;2.00;;;;;;;18.80;36.01;101472.89;105144;1273;97887;-84
2023/05/04 12:41:55;;;;;;;4.80;2.50;;;;;;;18.85;35.44;101472.94;105436;1271;101367;-84
2023/05/04 12:44:41;;;;;;;2.00;1.70;;;;;;;18.85;35.38;101468.65;105199;1267;100613;-83
2023/05/04 12:47:26;;;;;;;2.30;1.80;;;;;;;18.87;35.56;101466.45;105293;1272;99266;-85
2023/05/04 12:50:12;;;;;;;4.80;1.70;;;;;;;18.89;35.28;101466.02;105261;1272;99226;-85
2023/05/04 12:52:58;;;;;;;2.40;2.00;;;;;;;18.92;35.18;101470.98;105537;1267;99206;-84